Time;durP1;ratioP1;P1;durP2;ratioP2;P2;SDS_P1;SDS_P2;PMS_P1;PMS_P2;Temp;Humidity;BMP_temperature;BMP_pressure;BME280_temperature;BME280_humidity;BME280_pressure;Samples;Min_cycle;Max_cycle;Signal;HPM_P1;HPM_P2
2022/01/05 00:02:58;;;;;;;11.50;3.53;;;4.00;99.90;;;;;;6728270;88;20626;-73
2022/01/05 00:12:59;;;;;;;10.35;3.50;;;3.70;99.90;;;;;;6729268;88;20200;-73
2022/01/05 00:23:00;;;;;;;10.23;3.10;;;3.60;99.90;;;;;;6730276;88;20237;-73
2022/01/05 00:33:01;;;;;;;6.60;3.08;;;3.70;99.90;;;;;;6727198;88;20253;-73
2022/01/05 00:43:02;;;;;;;12.50;2.90;;;3.10;99.90;;;;;;6744924;88;20707;-73
2022/01/05 00:53:02;;;;;;;8.35;3.03;;;3.00;99.90;;;;;;6733946;88;20292;-73
2022/01/05 01:03:03;;;;;;;11.10;4.20;;;2.90;99.90;;;;;;6734412;88;20531;-74
2022/01/05 01:13:04;;;;;;;7.28;3.33;;;2.90;99.90;;;;;;6733078;88;20246;-73
2022/01/05 01:23:05;;;;;;;3.60;1.35;;;2.80;99.90;;;;;;6732775;88;20252;-73
2022/01/05 01:33:06;;;;;;;2.05;0.75;;;2.50;99.90;;;;;;6732196;88;20309;-73
2022/01/05 01:43:07;;;;;;;2.45;1.00;;;2.40;99.90;;;;;;6731577;88;20703;-73
2022/01/05 01:53:08;;;;;;;3.50;1.50;;;2.50;99.90;;;;;;6731630;88;20211;-74
2022/01/05 02:03:08;;;;;;;5.07;1.90;;;2.50;99.90;;;;;;6729234;88;20230;-73
2022/01/05 02:13:09;;;;;;;3.97;1.77;;;2.60;99.90;;;;;;6730154;88;20180;-74
2022/01/05 02:23:10;;;;;;;6.00;2.10;;;2.70;99.90;;;;;;6728467;88;20203;-73
2022/01/05 02:33:10;;;;;;;4.82;2.20;;;2.70;99.90;;;;;;6735100;88;20193;-73
2022/01/05 02:43:11;;;;;;;10.70;2.90;;;2.70;99.90;;;;;;6731503;88;20184;-73
2022/01/05 02:53:12;;;;;;;7.47;2.90;;;2.80;99.90;;;;;;6730867;88;20177;-73
2022/01/05 03:03:12;;;;;;;11.63;4.10;;;2.70;99.90;;;;;;6731957;88;20266;-74
2022/01/05 03:13:13;;;;;;;12.00;3.72;;;2.60;99.90;;;;;;6732473;88;20764;-73
2022/01/05 03:23:14;;;;;;;12.95;3.55;;;2.50;99.90;;;;;;6730502;88;20177;-73
2022/01/05 03:33:20;;;;;;;7.87;3.53;;;2.40;99.90;;;;;;6739651;88;20188;-73
2022/01/05 03:43:20;;;;;;;8.73;3.47;;;2.30;99.90;;;;;;6743138;88;20196;-73
2022/01/05 03:53:21;;;;;;;11.93;3.67;;;2.20;99.90;;;;;;6728173;88;20678;-73
2022/01/05 04:03:22;;;;;;;10.07;3.42;;;2.20;99.90;;;;;;6728947;88;20693;-73
2022/01/05 04:13:22;;;;;;;17.62;3.72;;;2.10;99.90;;;;;;6732943;88;20173;-73
2022/01/05 04:23:23;;;;;;;11.18;3.50;;;2.00;99.90;;;;;;6728436;88;20186;-73
2022/01/05 04:33:23;;;;;;;11.07;3.22;;;2.00;99.90;;;;;;6728671;88;20194;-73
2022/01/05 04:43:24;;;;;;;10.35;2.55;;;2.00;99.90;;;;;;6726746;88;20188;-73
2022/01/05 04:53:24;;;;;;;9.50;2.83;;;1.90;99.90;;;;;;6728955;88;20641;-73
2022/01/05 05:03:25;;;;;;;8.25;2.85;;;1.80;99.90;;;;;;6730598;88;20193;-73
2022/01/05 05:13:26;;;;;;;13.95;2.80;;;1.90;99.90;;;;;;6730050;88;20240;-73
2022/01/05 05:23:27;;;;;;;8.65;2.67;;;1.70;99.90;;;;;;6725015;88;20209;-73
2022/01/05 05:33:27;;;;;;;8.30;2.60;;;1.60;99.90;;;;;;6730638;88;20197;-73
2022/01/05 05:43:28;;;;;;;10.85;2.40;;;1.70;99.90;;;;;;6727360;88;20603;-73
2022/01/05 05:53:29;;;;;;;16.23;2.55;;;1.50;99.90;;;;;;6726394;88;20802;-73
2022/01/05 06:03:29;;;;;;;10.35;2.10;;;1.60;99.90;;;;;;6724848;88;20697;-73
2022/01/05 06:13:30;;;;;;;10.88;1.95;;;1.50;99.90;;;;;;6731240;88;20212;-73
2022/01/05 06:23:30;;;;;;;10.05;2.00;;;1.60;99.90;;;;;;6729060;88;20532;-73
2022/01/05 06:33:31;;;;;;;8.67;2.00;;;1.50;99.90;;;;;;6728365;88;20181;-74
2022/01/05 06:43:31;;;;;;;13.23;2.20;;;1.40;99.90;;;;;;6728985;88;20539;-73
2022/01/05 06:53:32;;;;;;;10.43;2.28;;;1.50;99.90;;;;;;6729294;88;20973;-72
2022/01/05 07:03:33;;;;;;;11.15;2.42;;;1.40;99.90;;;;;;6725996;88;20722;-73
2022/01/05 07:13:33;;;;;;;19.70;2.60;;;1.50;99.90;;;;;;6728120;88;20218;-73
2022/01/05 07:23:34;;;;;;;11.95;2.50;;;1.50;99.90;;;;;;6728871;88;20507;-73
2022/01/05 07:33:36;;;;;;;14.70;2.20;;;1.60;99.90;;;;;;6729603;88;20214;-74
2022/01/05 07:43:36;;;;;;;9.35;2.10;;;1.70;99.90;;;;;;6724182;88;20177;-73
2022/01/05 07:53:37;;;;;;;11.90;2.40;;;1.80;99.90;;;;;;6723032;88;20254;-73
2022/01/05 08:03:37;;;;;;;7.82;2.00;;;1.90;99.90;;;;;;6740624;88;20202;-73
2022/01/05 08:13:38;;;;;;;12.37;2.08;;;2.10;99.90;;;;;;6728367;88;20290;-73
2022/01/05 08:23:39;;;;;;;14.77;2.17;;;2.30;99.90;;;;;;6726235;88;20632;-73
2022/01/05 08:33:39;;;;;;;11.45;1.73;;;2.40;99.90;;;;;;6727123;88;20275;-73
2022/01/05 08:43:40;;;;;;;8.45;2.15;;;2.70;99.90;;;;;;6730374;88;20200;-73
2022/01/05 08:53:40;;;;;;;8.85;1.75;;;2.80;99.90;;;;;;6729770;88;20406;-73
2022/01/05 09:03:41;;;;;;;12.98;1.52;;;2.90;99.90;;;;;;6729069;88;20207;-74
2022/01/05 09:13:42;;;;;;;8.68;1.90;;;3.10;99.90;;;;;;6730260;88;20174;-73
2022/01/05 09:23:43;;;;;;;12.88;1.90;;;3.10;99.90;;;;;;6733218;88;20179;-73
2022/01/05 09:33:44;;;;;;;13.43;2.00;;;3.30;99.90;;;;;;6740914;88;20177;-73
2022/01/05 09:43:51;;;;;;;8.20;1.77;;;3.40;99.90;;;;;;6735783;88;20352;-73
2022/01/05 09:53:53;;;;;;;7.85;1.45;;;3.60;99.90;;;;;;6738104;88;20199;-74
2022/01/05 10:03:54;;;;;;;6.65;1.40;;;3.70;99.90;;;;;;6730603;88;20200;-74
2022/01/05 10:13:55;;;;;;;7.80;1.40;;;3.80;99.90;;;;;;6730751;88;20253;-74
2022/01/05 10:23:56;;;;;;;8.10;1.70;;;3.90;99.90;;;;;;6728251;88;20211;-74
2022/01/05 10:33:58;;;;;;;2.72;1.02;;;4.20;99.90;;;;;;6732251;88;20215;-74
2022/01/05 10:44:17;;;;;;;13.45;1.40;;;4.20;99.90;;;;;;6727091;88;20360;-73
2022/01/05 10:54:21;;;;;;;8.50;1.50;;;4.20;99.90;;;;;;6722007;88;20313;-73
2022/01/05 11:04:23;;;;;;;9.27;1.58;;;4.30;99.90;;;;;;6729496;88;20250;-74
2022/01/05 11:14:37;;;;;;;4.60;1.15;;;4.60;99.90;;;;;;6727321;88;20177;-74
2022/01/05 11:24:41;;;;;;;10.95;1.90;;;4.70;99.90;;;;;;6720499;88;20287;-75
2022/01/05 11:34:42;;;;;;;6.28;1.40;;;4.70;99.90;;;;;;6743512;88;20692;-75
2022/01/05 11:44:48;;;;;;;5.68;1.55;;;4.90;99.90;;;;;;6760201;88;20190;-76
2022/01/05 11:55:03;;;;;;;6.07;1.03;;;5.20;99.90;;;;;;6750888;88;20298;-76
2022/01/05 12:05:04;;;;;;;6.55;1.62;;;5.30;99.90;;;;;;6723456;88;20707;-75
2022/01/05 12:15:05;;;;;;;8.63;1.70;;;5.40;99.90;;;;;;6719504;88;20177;-73
2022/01/05 12:25:09;;;;;;;7.90;1.70;;;5.60;99.90;;;;;;6738230;88;20221;-74
2022/01/05 12:35:18;;;;;;;7.65;1.85;;;6.60;99.90;;;;;;6742994;88;20180;-75
2022/01/05 12:45:57;;;;;;;6.28;1.80;;;6.20;99.90;;;;;;6735362;88;20649;-75
2022/01/05 12:55:57;;;;;;;3.58;1.62;;;5.50;99.90;;;;;;6724939;88;20189;-75
2022/01/05 13:06:18;;;;;;;6.32;1.83;;;5.40;99.90;;;;;;6739224;88;20219;-75
2022/01/05 13:16:26;;;;;;;12.70;2.53;;;6.20;99.90;;;;;;6728879;88;20222;-74
2022/01/05 13:26:27;;;;;;;11.32;2.20;;;6.70;99.90;;;;;;6728545;88;20196;-74
2022/01/05 13:36:27;;;;;;;9.55;1.90;;;5.80;99.90;;;;;;6725690;88;20185;-75
2022/01/05 13:46:29;;;;;;;5.85;1.98;;;6.00;99.90;;;;;;6728383;88;20689;-74
2022/01/05 13:56:39;;;;;;;9.18;1.67;;;5.80;99.90;;;;;;6725376;88;20685;-74
2022/01/05 14:06:40;;;;;;;7.45;2.10;;;5.50;99.90;;;;;;6724577;88;20365;-74
2022/01/05 14:16:47;;;;;;;9.97;2.40;;;5.70;99.90;;;;;;6727445;88;20182;-76
2022/01/05 14:26:47;;;;;;;9.20;2.47;;;5.60;99.90;;;;;;6725083;88;21280;-75
2022/01/05 14:36:53;;;;;;;6.95;2.30;;;5.60;99.90;;;;;;6720046;88;20315;-74
2022/01/05 14:46:58;;;;;;;6.83;1.30;;;5.60;99.90;;;;;;6722699;88;20211;-73
2022/01/05 14:56:58;;;;;;;7.93;1.33;;;5.60;99.90;;;;;;6729677;88;20244;-74
2022/01/05 15:06:59;;;;;;;7.50;1.65;;;5.50;99.90;;;;;;6731013;88;20353;-74
2022/01/05 15:16:59;;;;;;;7.25;1.65;;;5.50;99.90;;;;;;6724568;88;20757;-74
2022/01/05 15:27:00;;;;;;;8.65;1.65;;;5.40;99.90;;;;;;6722017;88;20244;-76
2022/01/05 15:37:01;;;;;;;6.05;1.40;;;5.30;99.90;;;;;;6739536;88;20269;-74
2022/01/05 15:47:02;;;;;;;6.78;1.75;;;5.20;99.90;;;;;;6725458;88;20338;-74
2022/01/05 15:57:11;;;;;;;8.93;1.80;;;5.20;99.90;;;;;;6733426;88;20240;-74
2022/01/05 16:07:13;;;;;;;9.23;1.95;;;5.20;99.90;;;;;;6726925;88;20604;-74
2022/01/05 16:17:14;;;;;;;7.10;1.87;;;5.20;99.90;;;;;;6727080;88;20347;-75
2022/01/05 16:27:16;;;;;;;8.05;2.28;;;5.10;99.90;;;;;;6729845;88;20584;-77
2022/01/05 16:37:17;;;;;;;10.57;2.33;;;5.00;99.90;;;;;;6722098;88;20207;-74
2022/01/05 16:47:18;;;;;;;10.38;2.25;;;5.10;99.90;;;;;;6743430;87;20399;-75
2022/01/05 17:07:20;;;;;;;11.00;2.65;;;5.10;99.90;;;;;;6740571;88;20970;-74
2022/01/05 17:17:21;;;;;;;12.10;2.40;;;5.00;99.90;;;;;;6735304;88;20204;-75
2022/01/05 17:27:21;;;;;;;8.95;2.83;;;5.00;99.90;;;;;;6731149;88;20199;-74
2022/01/05 17:37:22;;;;;;;13.50;2.83;;;4.90;99.90;;;;;;6740500;88;20708;-76
2022/01/05 17:47:23;;;;;;;11.25;3.12;;;4.80;99.90;;;;;;6732610;88;20220;-75
2022/01/05 17:57:23;;;;;;;9.68;3.78;;;4.70;99.90;;;;;;6728262;88;20535;-76
2022/01/05 18:07:24;;;;;;;11.20;2.90;;;4.60;99.90;;;;;;6735299;88;20308;-74
2022/01/05 18:17:25;;;;;;;9.63;2.83;;;4.50;99.90;;;;;;6731709;88;21085;-76
2022/01/05 18:27:25;;;;;;;17.17;3.05;;;4.50;99.90;;;;;;6744178;88;20658;-75
2022/01/05 18:37:32;;;;;;;10.32;3.33;;;4.30;99.90;;;;;;6734650;88;20189;-74
2022/01/05 18:47:33;;;;;;;9.25;3.22;;;4.30;99.90;;;;;;6736817;88;20187;-75
2022/01/05 18:57:33;;;;;;;13.48;3.78;;;4.20;99.90;;;;;;6730871;88;20271;-74
2022/01/05 19:07:34;;;;;;;12.75;4.20;;;4.20;99.90;;;;;;6730897;88;20807;-74
2022/01/05 19:17:34;;;;;;;14.45;4.50;;;4.30;99.90;;;;;;6732043;88;20197;-75
2022/01/05 19:27:35;;;;;;;14.18;4.15;;;4.30;99.90;;;;;;6730116;88;20194;-75
2022/01/05 19:37:35;;;;;;;11.50;4.35;;;4.30;99.90;;;;;;6725970;88;20520;-72
2022/01/05 19:47:36;;;;;;;14.68;3.78;;;4.40;99.90;;;;;;6732213;88;20197;-74
2022/01/05 19:57:37;;;;;;;7.82;3.12;;;4.40;99.90;;;;;;6726939;88;20267;-74
2022/01/05 20:07:39;;;;;;;10.57;3.40;;;4.40;99.90;;;;;;6726085;88;20233;-74
2022/01/05 20:17:40;;;;;;;9.10;3.47;;;4.40;99.90;;;;;;6727151;88;20336;-73
2022/01/05 20:27:40;;;;;;;8.05;3.47;;;4.30;99.90;;;;;;6733137;88;21142;-75
2022/01/05 20:37:41;;;;;;;10.25;3.33;;;4.30;99.90;;;;;;6730621;88;20228;-74
2022/01/05 20:47:41;;;;;;;7.47;3.33;;;4.20;99.90;;;;;;6732199;88;20261;-72
2022/01/05 20:57:42;;;;;;;14.63;4.12;;;4.10;99.90;;;;;;6738676;88;20294;-74
2022/01/05 21:07:42;;;;;;;11.60;4.22;;;4.10;99.90;;;;;;6733508;88;20247;-74
2022/01/05 21:17:45;;;;;;;15.40;5.00;;;4.10;99.90;;;;;;6737894;88;20701;-75
2022/01/05 21:27:56;;;;;;;13.82;5.07;;;4.20;99.90;;;;;;6730161;88;20219;-76
2022/01/05 21:37:56;;;;;;;13.18;4.12;;;4.10;99.90;;;;;;6735888;88;20188;-75
2022/01/05 21:47:58;;;;;;;11.93;4.30;;;4.30;99.90;;;;;;6733752;88;20224;-75
2022/01/05 21:57:58;;;;;;;19.50;4.35;;;4.50;99.90;;;;;;6734419;88;20281;-75
2022/01/05 22:08:00;;;;;;;10.60;4.47;;;4.50;99.90;;;;;;6729798;88;20766;-74
2022/01/05 22:18:01;;;;;;;12.43;4.60;;;4.50;99.90;;;;;;6731495;88;21328;-73
2022/01/05 22:28:02;;;;;;;9.18;4.12;;;4.50;99.90;;;;;;6731713;88;20859;-73
2022/01/05 22:38:02;;;;;;;14.63;4.12;;;4.50;99.90;;;;;;6731365;88;20186;-74
2022/01/05 22:48:03;;;;;;;12.50;3.43;;;4.40;99.90;;;;;;6731385;88;20320;-74
2022/01/05 22:58:04;;;;;;;7.78;3.70;;;4.40;99.90;;;;;;6730810;88;20635;-76
2022/01/05 23:08:04;;;;;;;11.40;4.05;;;4.30;99.90;;;;;;6734647;88;20263;-76
2022/01/05 23:18:05;;;;;;;12.93;4.15;;;4.20;99.90;;;;;;6730593;88;20239;-76
2022/01/05 23:28:06;;;;;;;8.95;3.90;;;4.00;99.90;;;;;;6739214;77;20214;-75
2022/01/05 23:38:06;;;;;;;12.15;3.80;;;4.00;99.90;;;;;;6737679;88;20595;-75
2022/01/05 23:48:09;;;;;;;12.83;3.70;;;3.90;99.90;;;;;;6736186;88;20632;-75
2022/01/05 23:58:10;;;;;;;8.15;3.05;;;3.80;99.90;;;;;;6735628;88;20498;-75
